createdAt,value
2019-03-16T00:01:57.592Z,1.80
2019-03-16T00:04:30.497Z,1.80
2019-03-16T00:07:02.839Z,1.80
2019-03-16T00:09:36.074Z,1.80
2019-03-16T00:12:09.855Z,1.80
2019-03-16T00:14:41.012Z,1.80
2019-03-16T00:17:22.882Z,1.70
2019-03-16T00:19:48.679Z,1.70
2019-03-16T00:22:21.054Z,1.70
2019-03-16T00:24:53.541Z,1.70
2019-03-16T00:27:26.434Z,1.60
2019-03-16T00:30:03.031Z,1.70
2019-03-16T00:32:35.199Z,1.70
2019-03-16T00:35:07.627Z,1.70
2019-03-16T00:37:38.298Z,1.60
2019-03-16T00:40:13.375Z,1.70
2019-03-16T00:42:48.283Z,1.70
2019-03-16T00:45:23.873Z,1.70
2019-03-16T00:47:56.959Z,1.70
2019-03-16T00:50:29.464Z,1.70
2019-03-16T00:53:03.235Z,1.70
2019-03-16T00:55:38.747Z,1.60
2019-03-16T00:58:12.255Z,1.60
2019-03-16T01:00:47.111Z,1.60
2019-03-16T01:03:20.771Z,1.50
2019-03-16T01:05:55.424Z,1.50
2019-03-16T01:08:27.453Z,1.50
2019-03-16T01:10:59.762Z,1.50
2019-03-16T01:13:30.391Z,1.50
2019-03-16T01:16:00.647Z,1.40
2019-03-16T01:18:31.519Z,1.40
2019-03-16T01:21:03.822Z,1.40
2019-03-16T01:23:34.583Z,1.40
2019-03-16T01:26:04.615Z,1.40
2019-03-16T01:28:36.486Z,1.40
2019-03-16T01:31:09.282Z,1.30
2019-03-16T01:33:43.050Z,1.30
2019-03-16T01:36:18.152Z,1.40
2019-03-16T01:38:53.812Z,1.40
2019-03-16T01:41:27.052Z,1.40
2019-03-16T01:44:01.511Z,1.30
2019-03-16T01:46:35.487Z,1.30
2019-03-16T01:49:05.544Z,1.30
2019-03-16T01:51:35.334Z,1.30
2019-03-16T01:54:09.086Z,1.30
2019-03-16T01:56:43.423Z,1.20
2019-03-16T01:59:17.120Z,1.20
2019-03-16T02:01:50.847Z,1.20
2019-03-16T02:04:23.759Z,1.20
2019-03-16T02:06:53.947Z,1.20
2019-03-16T02:09:24.438Z,1.20
2019-03-16T02:12:01.136Z,1.20
2019-03-16T02:14:35.903Z,1.20
2019-03-16T02:17:09.127Z,1.20
2019-03-16T02:19:42.723Z,1.20
2019-03-16T02:22:17.799Z,1.20
2019-03-16T02:24:50.919Z,1.20
2019-03-16T02:27:24.383Z,1.20
2019-03-16T02:29:57.995Z,1.20
2019-03-16T02:32:33.942Z,1.20
2019-03-16T02:35:09.464Z,1.20
2019-03-16T02:37:42.165Z,1.20
2019-03-16T02:40:21.352Z,1.20
2019-03-16T02:43:02.312Z,1.20
2019-03-16T02:45:37.617Z,1.20
2019-03-16T02:48:08.384Z,1.20
2019-03-16T02:50:41.376Z,1.10
2019-03-16T02:53:16.669Z,1.10
2019-03-16T02:55:50.389Z,1.20
2019-03-16T02:58:20.794Z,1.20
2019-03-16T03:00:50.719Z,1.20
2019-03-16T03:03:29.629Z,1.20
2019-03-16T03:05:58.981Z,1.20
2019-03-16T03:08:34.952Z,1.20
2019-03-16T03:11:09.676Z,1.10
2019-03-16T03:13:43.466Z,1.20
2019-03-16T03:16:15.840Z,1.10
2019-03-16T03:18:50.310Z,1.10
2019-03-16T03:21:23.422Z,1.10
2019-03-16T03:23:54.035Z,1.20
2019-03-16T03:26:26.112Z,1.20
2019-03-16T03:28:59.268Z,1.10
2019-03-16T03:31:33.153Z,1.20
2019-03-16T03:34:06.430Z,1.20
2019-03-16T03:36:39.812Z,1.20
2019-03-16T03:39:12.842Z,1.20
2019-03-16T03:41:45.920Z,1.20
2019-03-16T03:44:19.403Z,1.20
2019-03-16T03:46:52.039Z,1.20
2019-03-16T03:49:26.817Z,1.20
2019-03-16T03:52:00.188Z,1.20
2019-03-16T03:54:32.931Z,1.20
2019-03-16T03:57:06.215Z,1.20
2019-03-16T03:59:37.039Z,1.30
2019-03-16T04:02:10.467Z,1.20
2019-03-16T04:04:44.831Z,1.20
2019-03-16T04:07:20.124Z,1.20
2019-03-16T04:09:52.271Z,1.20
2019-03-16T04:12:24.605Z,1.20
2019-03-16T04:14:58.352Z,1.20
2019-03-16T04:17:31.170Z,1.20
2019-03-16T04:20:01.360Z,1.20
2019-03-16T04:22:34.849Z,1.20
2019-03-16T04:25:11.749Z,1.20
2019-03-16T04:27:50.931Z,1.20
2019-03-16T04:30:24.608Z,1.20
2019-03-16T04:32:57.791Z,1.20
2019-03-16T04:35:30.912Z,1.20
2019-03-16T04:38:04.555Z,1.20
2019-03-16T04:40:37.890Z,1.20
2019-03-16T04:43:12.031Z,1.20
2019-03-16T04:45:45.790Z,1.20
2019-03-16T04:48:18.430Z,1.20
2019-03-16T04:50:48.584Z,1.20
2019-03-16T04:53:20.904Z,1.20
2019-03-16T04:55:54.276Z,1.20
2019-03-16T04:58:26.365Z,1.20
2019-03-16T05:00:58.942Z,1.20
2019-03-16T05:03:29.568Z,1.20
2019-03-16T05:06:00.871Z,1.20
2019-03-16T05:08:36.607Z,1.20
2019-03-16T05:11:10.602Z,1.20
2019-03-16T05:13:44.903Z,1.20
2019-03-16T05:16:17.790Z,1.20
2019-03-16T05:18:52.554Z,1.10
2019-03-16T05:21:26.243Z,1.10
2019-03-16T05:23:59.072Z,1.20
2019-03-16T05:26:33.758Z,1.10
2019-03-16T05:29:09.471Z,1.10
2019-03-16T05:31:44.670Z,1.10
2019-03-16T05:34:15.743Z,1.20
2019-03-16T05:36:46.031Z,1.10
2019-03-16T05:39:19.864Z,1.20
2019-03-16T05:41:51.232Z,1.20
2019-03-16T05:44:23.194Z,1.20
2019-03-16T05:46:56.927Z,1.20
2019-03-16T05:49:31.659Z,1.20
2019-03-16T05:52:05.157Z,1.10
2019-03-16T05:54:39.073Z,1.20
2019-03-16T05:57:12.830Z,1.20
2019-03-16T05:59:47.002Z,1.20
2019-03-16T06:02:19.255Z,1.10
2019-03-16T06:04:54.888Z,1.10
2019-03-16T06:07:31.231Z,1.10
2019-03-16T06:10:03.590Z,1.10
2019-03-16T06:12:32.928Z,1.10
2019-03-16T06:15:05.993Z,1.20
2019-03-16T06:17:36.707Z,1.20
2019-03-16T06:20:11.147Z,1.20
2019-03-16T06:22:45.355Z,1.20
2019-03-16T06:25:19.820Z,1.20
2019-03-16T06:27:53.483Z,1.20
2019-03-16T06:30:26.655Z,1.20
2019-03-16T06:32:59.786Z,1.30
2019-03-16T06:35:30.323Z,1.30
2019-03-16T06:38:05.194Z,1.30
2019-03-16T06:40:37.310Z,1.40
2019-03-16T06:43:11.775Z,1.40
2019-03-16T06:45:45.483Z,1.40
2019-03-16T06:48:18.216Z,1.40
2019-03-16T06:50:52.894Z,1.50
2019-03-16T06:53:24.079Z,1.50
2019-03-16T06:55:55.520Z,1.50
2019-03-16T06:58:28.966Z,1.50
2019-03-16T07:01:05.695Z,1.50
2019-03-16T07:03:39.391Z,1.60
2019-03-16T07:06:12.842Z,1.60
2019-03-16T07:08:46.692Z,1.60
2019-03-16T07:11:21.411Z,1.60
2019-03-16T07:13:56.894Z,1.60
2019-03-16T07:16:28.022Z,1.60
2019-03-16T07:19:22.691Z,1.70
2019-03-16T07:21:59.306Z,1.70
2019-03-16T07:24:33.631Z,1.70
2019-03-16T07:27:06.367Z,1.70
2019-03-16T07:29:41.114Z,1.60
2019-03-16T07:32:12.874Z,1.60
2019-03-16T07:34:46.529Z,1.60
2019-03-16T07:37:19.751Z,1.60
2019-03-16T07:39:55.366Z,1.60
2019-03-16T07:42:26.822Z,1.60
2019-03-16T07:45:07.506Z,1.60
2019-03-16T07:47:29.674Z,1.70
2019-03-16T07:50:04.734Z,1.70
2019-03-16T07:52:39.327Z,1.70
2019-03-16T07:55:13.407Z,1.80
2019-03-16T07:57:46.515Z,1.80
2019-03-16T08:00:21.151Z,1.90
2019-03-16T08:02:55.074Z,1.90
2019-03-16T08:05:28.264Z,1.90
2019-03-16T08:08:03.851Z,1.90
2019-03-16T08:10:35.336Z,1.80
2019-03-16T08:13:11.231Z,1.80
2019-03-16T08:15:44.422Z,1.80
2019-03-16T08:18:20.061Z,1.80
2019-03-16T08:20:53.090Z,1.80
2019-03-16T08:23:27.102Z,1.90
2019-03-16T08:26:01.771Z,1.90
2019-03-16T08:28:35.553Z,1.90
2019-03-16T08:31:07.582Z,2.00
2019-03-16T08:33:40.480Z,2.10
2019-03-16T08:36:15.010Z,2.10
2019-03-16T08:38:48.040Z,2.20
2019-03-16T08:41:22.130Z,2.20
2019-03-16T08:43:54.287Z,2.30
2019-03-16T08:46:26.404Z,2.30
2019-03-16T08:48:57.600Z,2.30
2019-03-16T08:51:33.571Z,2.30
2019-03-16T08:54:07.239Z,2.20
2019-03-16T08:56:41.247Z,2.30
2019-03-16T08:59:11.963Z,2.30
2019-03-16T09:01:44.318Z,2.40
2019-03-16T09:04:18.530Z,2.30
2019-03-16T09:06:52.956Z,2.40
2019-03-16T09:09:23.719Z,2.50
2019-03-16T09:11:53.916Z,2.50
2019-03-16T09:14:24.006Z,2.60
2019-03-16T09:16:57.463Z,2.80
2019-03-16T09:19:33.547Z,2.90
2019-03-16T09:22:04.075Z,2.90
2019-03-16T09:24:34.307Z,2.90
2019-03-16T09:27:04.525Z,3.00
2019-03-16T09:29:41.174Z,3.00
2019-03-16T09:32:12.732Z,3.10
2019-03-16T09:34:46.431Z,3.00
2019-03-16T09:37:21.023Z,3.00
2019-03-16T09:39:53.829Z,3.00
2019-03-16T09:42:25.278Z,3.00
2019-03-16T09:45:00.838Z,3.10
2019-03-16T09:47:33.538Z,3.00
2019-03-16T09:50:07.526Z,3.10
2019-03-16T09:52:42.355Z,3.10
2019-03-16T09:55:14.723Z,3.30
2019-03-16T09:57:47.210Z,3.40
2019-03-16T10:00:22.149Z,3.40
2019-03-16T10:02:56.103Z,3.30
2019-03-16T10:05:28.259Z,3.20
2019-03-16T10:08:00.674Z,3.20
2019-03-16T10:10:34.583Z,3.10
2019-03-16T10:13:05.799Z,3.10
2019-03-16T10:15:40.619Z,3.20
2019-03-16T10:18:15.387Z,3.20
2019-03-16T10:20:47.516Z,3.20
2019-03-16T10:23:19.658Z,3.10
2019-03-16T10:25:51.835Z,3.20
2019-03-16T10:28:25.247Z,3.30
2019-03-16T10:30:59.880Z,3.20
2019-03-16T10:33:33.126Z,3.20
2019-03-16T10:36:07.147Z,3.20
2019-03-16T10:38:39.435Z,3.30
2019-03-16T10:41:13.183Z,3.30
2019-03-16T10:43:46.975Z,3.50
2019-03-16T10:46:27.460Z,3.60
2019-03-16T10:48:57.414Z,3.80
2019-03-16T10:51:29.377Z,3.70
2019-03-16T10:54:03.265Z,3.60
2019-03-16T10:56:36.959Z,3.50
2019-03-16T10:59:11.101Z,3.40
2019-03-16T11:01:44.382Z,3.40
2019-03-16T11:04:17.055Z,3.50
2019-03-16T11:06:49.734Z,3.50
2019-03-16T11:09:20.484Z,3.50
2019-03-16T11:11:51.650Z,3.70
2019-03-16T11:14:21.595Z,3.80
2019-03-16T11:16:52.975Z,3.80
2019-03-16T11:19:26.426Z,3.80
2019-03-16T11:21:59.164Z,3.80
2019-03-16T11:24:32.515Z,3.80
2019-03-16T11:27:05.347Z,3.70
2019-03-16T11:29:38.184Z,3.70
2019-03-16T11:32:11.359Z,3.70
2019-03-16T11:34:44.498Z,3.70
2019-03-16T11:37:18.175Z,3.60
2019-03-16T11:39:52.938Z,3.50
2019-03-16T11:42:27.555Z,3.60
2019-03-16T11:45:01.283Z,3.60
2019-03-16T11:47:36.167Z,3.70
2019-03-16T11:50:07.595Z,3.70
2019-03-16T11:52:38.235Z,3.90
2019-03-16T11:55:07.606Z,3.90
2019-03-16T11:57:39.179Z,3.90
2019-03-16T12:00:11.205Z,4.00
2019-03-16T12:02:43.006Z,4.00
2019-03-16T12:05:16.611Z,3.90
2019-03-16T12:07:52.770Z,3.80
2019-03-16T12:10:24.963Z,3.80
2019-03-16T12:12:58.047Z,3.80
2019-03-16T12:15:32.873Z,3.80
2019-03-16T12:18:05.956Z,3.80
2019-03-16T12:20:39.783Z,3.90
2019-03-16T12:23:12.963Z,3.90
2019-03-16T12:25:46.167Z,3.90
2019-03-16T12:28:19.999Z,3.90
2019-03-16T12:30:52.769Z,3.80
2019-03-16T12:33:26.235Z,3.80
2019-03-16T12:35:58.915Z,3.80
2019-03-16T12:38:35.392Z,3.70
2019-03-16T12:41:11.718Z,3.70
2019-03-16T12:43:44.871Z,3.70
2019-03-16T12:46:18.079Z,3.60
2019-03-16T12:48:52.058Z,3.60
2019-03-16T12:51:26.247Z,3.60
2019-03-16T12:53:59.499Z,3.60
2019-03-16T12:56:31.223Z,3.60
2019-03-16T12:59:10.404Z,3.50
2019-03-16T13:01:43.207Z,3.50
2019-03-16T13:04:13.678Z,3.40
2019-03-16T13:06:44.126Z,3.40
2019-03-16T13:09:14.450Z,3.40
2019-03-16T13:11:44.531Z,3.40
2019-03-16T13:14:14.435Z,3.50
2019-03-16T13:16:45.543Z,3.50
2019-03-16T13:19:17.987Z,3.60
2019-03-16T13:21:51.871Z,3.60
2019-03-16T13:24:26.763Z,3.60
2019-03-16T13:27:02.539Z,3.70
2019-03-16T13:29:35.087Z,3.70
2019-03-16T13:32:07.972Z,3.60
2019-03-16T13:34:41.888Z,3.70
2019-03-16T13:37:15.627Z,3.60
2019-03-16T13:39:47.903Z,3.60
2019-03-16T13:42:20.923Z,3.50
2019-03-16T13:44:54.052Z,3.40
2019-03-16T13:47:27.838Z,3.30
2019-03-16T13:50:02.442Z,3.20
2019-03-16T13:52:36.158Z,3.30
2019-03-16T13:55:09.854Z,3.30
2019-03-16T13:57:42.687Z,3.30
2019-03-16T14:00:18.143Z,3.30
2019-03-16T14:02:48.558Z,3.30
2019-03-16T14:05:22.274Z,3.20
2019-03-16T14:07:52.339Z,3.20
2019-03-16T14:10:25.056Z,3.20
2019-03-16T14:12:56.683Z,3.20
2019-03-16T14:15:26.915Z,3.30
2019-03-16T14:17:59.217Z,3.20
2019-03-16T14:20:32.455Z,3.20
2019-03-16T14:23:06.934Z,3.20
2019-03-16T14:25:40.255Z,3.20
2019-03-16T14:28:12.032Z,3.20
2019-03-16T14:30:47.205Z,3.20
2019-03-16T14:33:21.971Z,3.20
2019-03-16T14:35:56.711Z,3.10
2019-03-16T14:38:30.852Z,3.00
2019-03-16T14:41:01.062Z,3.00
2019-03-16T14:43:32.407Z,3.00
2019-03-16T14:46:05.471Z,3.00
2019-03-16T14:48:37.895Z,2.90
2019-03-16T14:51:10.663Z,2.90
2019-03-16T14:53:43.807Z,2.80
2019-03-16T14:56:17.960Z,2.80
2019-03-16T14:58:51.623Z,2.80
2019-03-16T15:01:23.843Z,2.70
2019-03-16T15:03:57.434Z,2.70
2019-03-16T15:06:30.631Z,2.80
2019-03-16T15:09:05.215Z,2.80
2019-03-16T15:11:40.031Z,2.70
2019-03-16T15:14:21.552Z,2.70
2019-03-16T15:16:47.713Z,2.70
2019-03-16T15:19:21.227Z,2.70
2019-03-16T15:21:54.406Z,2.70
2019-03-16T15:24:29.263Z,2.60
2019-03-16T15:27:02.209Z,2.50
2019-03-16T15:29:32.317Z,2.50
2019-03-16T15:32:04.615Z,2.50
2019-03-16T15:34:39.975Z,2.50
2019-03-16T15:37:16.734Z,2.40
2019-03-16T15:39:49.409Z,2.40
2019-03-16T15:42:23.102Z,2.30
2019-03-16T15:44:54.166Z,2.30
2019-03-16T15:47:25.987Z,2.30
2019-03-16T15:50:00.867Z,2.20
2019-03-16T15:52:33.439Z,2.10
2019-03-16T15:55:06.306Z,2.10
2019-03-16T15:57:42.711Z,2.20
2019-03-16T16:00:16.708Z,2.20
2019-03-16T16:02:51.419Z,2.10
2019-03-16T16:05:23.679Z,2.10
2019-03-16T16:07:55.874Z,2.00
2019-03-16T16:10:31.490Z,2.00
2019-03-16T16:13:06.271Z,2.00
2019-03-16T16:15:39.973Z,2.00
2019-03-16T16:18:10.380Z,2.00
2019-03-16T16:20:40.334Z,1.90
2019-03-16T16:23:11.101Z,1.90
2019-03-16T16:25:41.894Z,1.90
2019-03-16T16:28:16.574Z,1.90
2019-03-16T16:30:48.705Z,1.90
2019-03-16T16:33:21.886Z,1.90
2019-03-16T16:35:55.039Z,1.90
2019-03-16T16:38:25.103Z,1.90
2019-03-16T16:40:55.863Z,1.90
2019-03-16T16:43:30.087Z,1.90
2019-03-16T16:46:03.711Z,1.90
2019-03-16T16:48:40.398Z,1.90
2019-03-16T16:51:13.057Z,1.90
2019-03-16T16:53:47.662Z,1.90
2019-03-16T16:56:21.375Z,1.90
2019-03-16T16:58:53.079Z,1.80
2019-03-16T17:01:29.223Z,1.80
2019-03-16T17:03:59.632Z,1.80
2019-03-16T17:06:35.619Z,1.80
2019-03-16T17:09:10.912Z,1.80
2019-03-16T17:11:44.456Z,1.80
2019-03-16T17:14:16.980Z,1.80
2019-03-16T17:16:47.055Z,1.80
2019-03-16T17:19:21.210Z,1.80
2019-03-16T17:21:56.172Z,1.80
2019-03-16T17:24:29.545Z,1.80
2019-03-16T17:27:05.287Z,1.80
2019-03-16T17:29:38.818Z,1.70
2019-03-16T17:32:12.225Z,1.70
2019-03-16T17:34:49.023Z,1.70
2019-03-16T17:37:22.274Z,1.70
2019-03-16T17:39:57.251Z,1.60
2019-03-16T17:42:29.547Z,1.60
2019-03-16T17:45:04.767Z,1.50
2019-03-16T17:47:36.173Z,1.40
2019-03-16T17:50:05.748Z,1.30
2019-03-16T17:52:36.603Z,1.30
2019-03-16T17:55:11.334Z,1.30
2019-03-16T17:57:46.399Z,1.30
2019-03-16T18:00:22.271Z,1.30
2019-03-16T18:02:54.399Z,1.30
2019-03-16T18:05:29.574Z,1.30
2019-03-16T18:08:04.338Z,1.30
2019-03-16T18:10:39.144Z,1.30
2019-03-16T18:13:12.263Z,1.30
2019-03-16T18:15:44.223Z,1.30
2019-03-16T18:18:18.347Z,1.30
2019-03-16T18:20:51.878Z,1.20
2019-03-16T18:23:24.224Z,1.10
2019-03-16T18:25:55.534Z,1.00
2019-03-16T18:28:29.428Z,1.00
2019-03-16T18:30:59.803Z,1.00
2019-03-16T18:33:29.566Z,1.00
2019-03-16T18:36:01.476Z,0.90
2019-03-16T18:38:34.846Z,0.90
2019-03-16T18:41:08.329Z,0.90
2019-03-16T18:43:41.696Z,0.80
2019-03-16T18:46:13.919Z,0.80
2019-03-16T18:48:47.781Z,0.80
2019-03-16T18:51:19.347Z,0.80
2019-03-16T18:53:50.499Z,0.90
2019-03-16T18:56:20.226Z,0.80
2019-03-16T18:58:52.132Z,0.80
2019-03-16T19:01:26.215Z,0.80
2019-03-16T19:03:59.938Z,0.80
2019-03-16T19:06:31.651Z,0.80
2019-03-16T19:09:04.518Z,0.80
2019-03-16T19:11:40.383Z,0.80
2019-03-16T19:14:12.993Z,0.80
2019-03-16T19:16:45.726Z,0.80
2019-03-16T19:19:19.551Z,0.90
2019-03-16T19:21:49.841Z,0.90
2019-03-16T19:24:20.682Z,0.90
2019-03-16T19:26:53.387Z,1.00
2019-03-16T19:29:25.563Z,1.00
2019-03-16T19:31:56.511Z,1.10
2019-03-16T19:34:27.431Z,1.20
2019-03-16T19:36:58.527Z,1.20
2019-03-16T19:39:33.505Z,1.20
2019-03-16T19:42:04.178Z,1.20
2019-03-16T19:44:38.001Z,1.20
2019-03-16T19:47:12.168Z,1.20
2019-03-16T19:49:46.974Z,1.20
2019-03-16T19:52:21.566Z,1.20
2019-03-16T19:54:57.525Z,1.20
2019-03-16T19:57:30.102Z,1.20
2019-03-16T20:00:03.746Z,1.30
2019-03-16T20:02:47.320Z,1.30
2019-03-16T20:05:15.456Z,1.30
2019-03-16T20:07:49.310Z,1.40
2019-03-16T20:10:22.150Z,1.40
2019-03-16T20:12:56.287Z,1.30
2019-03-16T20:15:28.990Z,1.30
2019-03-16T20:18:01.194Z,1.30
2019-03-16T20:20:34.245Z,1.30
2019-03-16T20:23:08.511Z,1.30
2019-03-16T20:25:42.815Z,1.30
2019-03-16T20:28:14.398Z,1.30
2019-03-16T20:30:44.703Z,1.30
2019-03-16T20:33:15.422Z,1.30
2019-03-16T20:35:46.464Z,1.30
2019-03-16T20:38:16.726Z,1.40
2019-03-16T20:40:49.711Z,1.40
2019-03-16T20:43:23.647Z,1.40
2019-03-16T20:45:57.063Z,1.50
2019-03-16T20:48:30.751Z,1.50
2019-03-16T20:51:05.307Z,1.50
2019-03-16T20:53:39.918Z,1.60
2019-03-16T20:56:11.714Z,1.60
2019-03-16T20:58:42.544Z,1.60
2019-03-16T21:01:15.000Z,1.60
2019-03-16T21:03:49.663Z,1.60
2019-03-16T21:06:23.360Z,1.60
2019-03-16T21:09:03.091Z,1.60
2019-03-16T21:11:38.504Z,1.60
2019-03-16T21:14:15.394Z,1.60
2019-03-16T21:16:50.273Z,1.60
2019-03-16T21:19:29.422Z,1.60
2019-03-16T21:22:04.215Z,1.50
2019-03-16T21:24:41.375Z,1.50
2019-03-16T21:27:13.470Z,1.50
2019-03-16T21:29:47.491Z,1.50
2019-03-16T21:32:17.984Z,1.40
2019-03-16T21:34:49.982Z,1.40
2019-03-16T21:37:23.775Z,1.50
2019-03-16T21:39:58.633Z,1.40
2019-03-16T21:42:30.440Z,1.40
2019-03-16T21:45:00.859Z,1.40
2019-03-16T21:47:34.139Z,1.40
2019-03-16T21:50:08.559Z,1.50
2019-03-16T21:52:47.015Z,1.50
2019-03-16T21:55:23.391Z,1.40
2019-03-16T21:57:57.543Z,1.40
2019-03-16T22:00:32.095Z,1.40
2019-03-16T22:03:05.828Z,1.40
2019-03-16T22:05:40.831Z,1.40
2019-03-16T22:08:14.559Z,1.50
2019-03-16T22:10:53.309Z,1.40
2019-03-16T22:13:28.990Z,1.40
2019-03-16T22:16:01.214Z,1.40
2019-03-16T22:18:37.898Z,1.40
2019-03-16T22:21:12.854Z,1.40
2019-03-16T22:23:46.247Z,1.40
2019-03-16T22:26:16.523Z,1.40
2019-03-16T22:28:46.314Z,1.40
2019-03-16T22:31:17.446Z,1.40
2019-03-16T22:33:54.398Z,1.40
2019-03-16T22:36:20.108Z,1.40
2019-03-16T22:38:51.010Z,1.40
2019-03-16T22:41:24.736Z,1.40
2019-03-16T22:43:59.618Z,1.40
2019-03-16T22:46:31.839Z,1.40
2019-03-16T22:49:04.039Z,1.40
2019-03-16T22:51:36.802Z,1.40
2019-03-16T22:54:10.600Z,1.40
2019-03-16T22:56:44.901Z,1.40
2019-03-16T22:59:18.143Z,1.40
2019-03-16T23:01:55.720Z,1.40
2019-03-16T23:04:35.263Z,1.40
2019-03-16T23:07:10.271Z,1.40
2019-03-16T23:09:42.431Z,1.40
2019-03-16T23:12:15.532Z,1.40
2019-03-16T23:14:51.495Z,1.40
2019-03-16T23:17:24.750Z,1.40
2019-03-16T23:19:58.490Z,1.30
2019-03-16T23:22:30.815Z,1.30
2019-03-16T23:25:04.894Z,1.30
2019-03-16T23:27:37.878Z,1.30
2019-03-16T23:30:11.489Z,1.40
2019-03-16T23:32:42.979Z,1.40
2019-03-16T23:35:16.710Z,1.40
2019-03-16T23:37:49.352Z,1.30
2019-03-16T23:40:21.097Z,1.30
2019-03-16T23:42:54.942Z,1.30
2019-03-16T23:45:27.712Z,1.30
2019-03-16T23:48:01.738Z,1.30
2019-03-16T23:50:35.371Z,1.30
2019-03-16T23:53:08.031Z,1.30
2019-03-16T23:55:40.159Z,1.30
2019-03-16T23:58:13.208Z,1.30
